Jewett, Texas
Current Conditions -  °F | °C
As of 5:55 PM on Monday 20 Oct 2014 (Local Time) from KLXY Reporting Station
Clear Clear  
Wind Chill: 76°   Ceiling: Unl
Heat Index: 76°   Visibility: 10mi
Dew Point: 60°   Wind: 5mph
Humidity: 57%   Direction: 50°NE
Pressure: 30"   Gusts: NA
Location:  31.36°N, 96.14°W
Report Text: KLXY 202255Z AUTO 05004KT 10SM CLR 24/15 A3000 RMK AO2 T02440154
Loading
Personal Weather Stations






























Interactive Weather Map
Tropical Storm Tracking
New forecast layout! Learn more

10-Day Weather Forecast

Advertisements
Track Severe Weather on mobile